• Join FlightAware (Why Join?)
  • Login
  • US Flag 
05:58AM EST


 

Airport Tracker/Info


-or-


 

Live Flight TrackerFlight Track Log ✈ EJA982 ✈ 14-Jun-2013 ✈ KOAK - KLAX

Flight Track Log - Related Links

Times and Time Zones

All times are in EDT time to prevent confusion due to time zone crossing. See the EJA982 flight status page for this flight to view local times or setup timezone preferences in your user account.

Time Position Orientation Groundspeed Altitude Reporting Facility
EDT Latitude Longitude Course Direction KTS MPH feet Rate Location/Type
03:19PM 37.7500 -122.2833 256° West 204 235 1,700  Level Northern Cal TRACON
03:20PM 37.7333 -122.3667 256° West 278 320 6,100 2,760 Climbing Northern Cal TRACON
03:22PM 37.5950 -122.4375 202° Southwest 300 345 10,300 2,220 Climbing Oakland Center
03:23PM 37.5081 -122.4653 194° South 319 367 13,000 2,640 Climbing Oakland Center
03:24PM 37.4194 -122.4414 168° South 358 412 15,800 2,820 Climbing Oakland Center
03:25PM 37.3403 -122.3253 131° Southeast 368 423 18,900 2,580 Climbing Oakland Center
03:26PM 37.2706 -122.2239 131° Southeast 381 438 21,100 1,980 Climbing Oakland Center
03:27PM 37.1961 -122.1181 131° Southeast 404 465 23,100 1,800 Climbing Oakland Center
03:28PM 37.1189 -122.0061 131° Southeast 421 484 24,900 1,680 Climbing Oakland Center
03:29PM 37.0381 -121.8919 132° Southeast 438 504 26,600 1,560 Climbing Oakland Center
03:30PM 36.9525 -121.7742 132° Southeast 455 524 28,200 1,560 Climbing Oakland Center
03:32PM 36.8650 -121.6544 132° Southeast 467 537 29,800 1,320 Climbing Oakland Center
03:33PM 36.7744 -121.5239 131° Southeast 480 552 31,000 540 Climbing Oakland Center
03:34PM 36.6803 -121.3922 132° Southeast 509 586 31,000  Level Oakland Center
03:35PM 36.5647 -121.2297 131° Southeast 522 601 31,000  Level Oakland Center
03:36PM 36.4772 -121.1053 131° Southeast 480 552 31,000  Level Oakland Center
03:37PM 36.3878 -120.9850 133° Southeast 474 545 31,000  Level Oakland Center
03:38PM 36.2989 -120.8625 132° Southeast 478 550 31,000  Level Oakland Center
03:39PM 36.2111 -120.7406 132° Southeast 475 547 31,000  Level Oakland Center
03:40PM 36.1219 -120.6206 133° Southeast 474 545 31,000  Level Oakland Center
03:41PM 36.0333 -120.5000 132° Southeast 473 544 31,000  Level Oakland Center
03:42PM 35.9450 -120.3800 132° Southeast 472 543 31,000  Level Oakland Center
03:43PM 35.8564 -120.2583 132° Southeast 474 545 31,000  Level Oakland Center
03:44PM 35.7497 -120.1150 132° Southeast 471 542 31,000  Level Oakland Center
03:45PM 35.6575 -119.9936 133° Southeast 477 549 31,000  Level Oakland Center
03:46PM 35.5314 -119.8769 143° Southeast 472 543 31,000 -180 Level Los Angeles Center
03:48PM 35.3353 -119.7106 145° Southeast 472 543 30,500 -720 Descending Oakland Center
03:49PM 35.2322 -119.6217 145° Southeast 454 522 29,000 -1,440 Descending Oakland Center
03:49PM 35.2125 -119.6047 145° Southeast 454 522 28,700 -1,380 Descending Los Angeles Center
03:50PM 35.1150 -119.5222 145° Southeast 432 497 27,300 -1,440 Descending Los Angeles Center
03:51PM 34.9997 -119.4222 145° Southeast 424 488 25,800 -1,380 Descending Los Angeles Center
03:52PM 34.9017 -119.3394 145° Southeast 428 493 24,500 -1,260 Descending Los Angeles Center
03:53PM 34.8053 -119.2583 145° Southeast 423 487 23,200 -1,380 Descending Los Angeles Center
03:54PM 34.7117 -119.1819 146° Southeast 409 471 21,700 -1,620 Descending Los Angeles Center
03:55PM 34.6136 -119.0972 145° Southeast 390 449 19,900 -1,680 Descending Los Angeles Center
03:56PM 34.5272 -119.0244 145° Southeast 379 436 18,300 -1,560 Descending Los Angeles Center
03:57PM 34.4397 -118.9525 146° Southeast 380 437 16,700 -1,560 Descending Los Angeles Center
03:58PM 34.3550 -118.8831 146° Southeast 369 425 15,100 -1,500 Descending Los Angeles Center
04:00PM 34.2717 -118.8511 162° South 308 354 13,700 -1,680 Descending Los Angeles Center
04:01PM 34.1783 -118.8158 163° South 295 339 11,700 -1,740 Descending Los Angeles Center
04:02PM 34.1022 -118.7881 163° South 287 330 10,100 -840 Descending Los Angeles Center
04:03PM 34.0386 -118.7308 143° Southeast 296 341 10,000 -360 Descending Los Angeles Center
04:04PM 34.0258 -118.6206 98° East 303 349 9,400 -1,260 Descending Los Angeles Center
04:05PM 34.0169 -118.5219 96° East 296 341 7,500 -1,260 Descending Los Angeles Center
04:06PM 34.0086 -118.4372 97° East 286 329 6,900 -1,440 Descending Los Angeles Center
04:07PM 34.0192 -118.3467 82° East 280 322 4,600 -1,740 Descending Los Angeles Center
04:08PM 34.0275 -118.2614 83° East 220 253 3,400 -780 Descending Los Angeles Center
04:09PM 34.0194 -118.2061 100° East 195 224 3,000 -240 Descending Los Angeles Center
04:10PM 33.9786 -118.2406 215° Southwest 195 224 3,000 -300 Level Los Angeles Center
04:11PM 33.9625 -118.3008 252° West 194 223 2,500 -900 Descending Los Angeles Center
04:12PM 33.9575 -118.3558 264° West 181 208 1,200 -1,200 Descending Los Angeles Center
04:13PM 33.9525 -118.4053 263° West 143 165 100 -1,080 Descending Los Angeles Center
04:15PM 33.9425 -118.4081 228° Southwest  Level Estimated